Time;durP1;ratioP1;P1;durP2;ratioP2;P2;SDS_P1;SDS_P2;PMS_P1;PMS_P2;Temp;Humidity;BMP_temperature;BMP_pressure;BME280_temperature;BME280_humidity;BME280_pressure;Samples;Min_cycle;Max_cycle;Signal;HPM_P1;HPM_P2
2023/03/09 00:01:32;;;;;;;;;;;;;;;7.22;65.34;95088.60;109016;1250;105061;-73
2023/03/09 00:04:01;;;;;;;;;;;;;;;7.23;65.07;95087.86;109011;1250;100034;-72
2023/03/09 00:06:29;;;;;;;;;;;;;;;7.25;65.29;95089.60;108974;1250;99824;-72
2023/03/09 00:08:57;;;;;;;;;;;;;;;7.27;65.19;95087.52;108940;1249;96895;-72
2023/03/09 00:11:25;;;;;;;;;;;;;;;7.29;65.25;95082.98;109021;1250;97007;-71
2023/03/09 00:13:53;;;;;;;;;;;;;;;7.29;65.35;95084.66;109033;1250;105080;-72
2023/03/09 00:16:26;;;;;;;;;;;;;;;7.31;65.19;95079.17;108687;1250;101395;-72
2023/03/09 00:18:56;;;;;;;;;;;;;;;7.33;65.20;95074.91;108775;1251;100097;-72
2023/03/09 00:21:36;;;;;;;;;;;;;;;7.35;65.23;95070.81;108937;1251;97165;-72
2023/03/09 00:24:09;;;;;;;;;;;;;;;7.37;65.11;95082.56;108919;1251;96936;-72
2023/03/09 00:26:38;;;;;;;;;;;;;;;7.38;65.09;95076.30;108922;1251;104659;-72
2023/03/09 00:29:10;;;;;;;;;;;;;;;7.39;65.40;95072.14;108698;1254;101306;-71
2023/03/09 00:31:39;;;;;;;;;;;;;;;7.41;65.33;95065.61;108831;1251;99731;-73
2023/03/09 00:34:07;;;;;;;;;;;;;;;7.42;65.32;95068.10;108828;1251;96942;-73
2023/03/09 00:36:35;;;;;;;;;;;;;;;7.43;65.23;95074.56;108920;1251;96985;-72
2023/03/09 00:39:04;;;;;;;;;;;;;;;7.44;65.22;95067.59;108904;1250;105097;-73
2023/03/09 00:41:32;;;;;;;;;;;;;;;7.45;65.17;95065.79;108833;1251;101531;-72
2023/03/09 00:44:01;;;;;;;;;;;;;;;7.47;65.36;95060.70;108729;1251;99672;-72
2023/03/09 00:46:29;;;;;;;;;;;;;;;7.48;65.23;95061.96;108894;1251;96858;-72
2023/03/09 00:48:57;;;;;;;;;;;;;;;7.49;65.43;95060.40;108879;1251;97773;-72
2023/03/09 00:51:26;;;;;;;;;;;;;;;7.49;65.51;95052.52;108898;1251;104550;-73
2023/03/09 00:53:55;;;;;;;;;;;;;;;7.45;65.54;95050.86;108866;1251;109557;-71
2023/03/09 00:56:25;;;;;;;;;;;;;;;7.44;65.81;95051.70;108898;1251;99493;-73
2023/03/09 00:58:54;;;;;;;;;;;;;;;7.43;65.49;95045.73;108709;1252;96945;-72
2023/03/09 01:01:22;;;;;;;;;;;;;;;7.43;65.60;95042.13;108760;1251;96983;-72
2023/03/09 01:03:51;;;;;;;;;;;;;;;7.43;65.54;95040.52;108855;1250;105082;-72
2023/03/09 01:06:19;;;;;;;;;;;;;;;7.43;65.58;95041.71;108909;1251;101461;-72
2023/03/09 01:08:47;;;;;;;;;;;;;;;7.44;65.60;95043.16;108857;1252;100035;-72
2023/03/09 01:11:16;;;;;;;;;;;;;;;7.43;65.40;95042.99;108883;1251;96848;-71
2023/03/09 01:13:45;;;;;;;;;;;;;;;7.43;65.55;95038.80;108968;1251;96960;-72
2023/03/09 01:16:13;;;;;;;;;;;;;;;7.44;65.67;95032.70;108816;1251;104958;-72
2023/03/09 01:18:41;;;;;;;;;;;;;;;7.45;65.59;95025.30;109012;1251;101109;-72
2023/03/09 01:21:09;;;;;;;;;;;;;;;7.44;65.63;95022.29;109031;1250;99993;-71
2023/03/09 01:23:38;;;;;;;;;;;;;;;7.44;65.60;95017.18;109014;1249;96940;-72
2023/03/09 01:26:08;;;;;;;;;;;;;;;7.45;65.62;95022.41;109043;1249;97057;-71
2023/03/09 01:28:36;;;;;;;;;;;;;;;7.47;65.54;95016.52;109040;1249;104952;-71
2023/03/09 01:31:11;;;;;;;;;;;;;;;7.46;65.47;95013.35;109101;1250;101451;-73
2023/03/09 01:33:40;;;;;;;;;;;;;;;7.48;65.68;95016.70;109022;1250;99951;-71
2023/03/09 01:36:08;;;;;;;;;;;;;;;7.49;65.47;95021.05;108984;1250;97270;-73
2023/03/09 01:38:36;;;;;;;;;;;;;;;7.51;65.71;95016.79;109079;1250;96978;-73
2023/03/09 01:41:05;;;;;;;;;;;;;;;7.52;65.92;95013.79;108988;1251;105067;-72
2023/03/09 01:43:36;;;;;;;;;;;;;;;7.52;65.78;95016.30;109003;1250;101342;-72
2023/03/09 01:46:23;;;;;;;;;;;;;;;7.53;65.71;95014.50;108995;1250;100513;-71
2023/03/09 01:48:53;;;;;;;;;;;;;;;7.56;65.69;95011.75;108992;1250;96889;-72
2023/03/09 01:51:22;;;;;;;;;;;;;;;7.59;65.91;95001.23;108687;1249;97915;-72
2023/03/09 01:53:51;;;;;;;;;;;;;;;7.61;65.88;95003.42;109063;1251;104365;-72
2023/03/09 01:56:20;;;;;;;;;;;;;;;7.62;65.95;95001.70;108754;1257;101068;-72
2023/03/09 01:58:49;;;;;;;;;;;;;;;7.63;66.09;94993.83;108978;1250;99766;-72
2023/03/09 02:01:18;;;;;;;;;;;;;;;7.64;65.98;94992.11;108975;1253;96904;-72
2023/03/09 02:03:49;;;;;;;;;;;;;;;7.64;65.98;94997.44;108766;1249;97039;-73
2023/03/09 02:06:18;;;;;;;;;;;;;;;7.65;66.04;94995.89;108704;1249;105063;-71
2023/03/09 02:09:00;;;;;;;;;;;;;;;7.63;66.12;94995.11;109021;1249;100604;-72
2023/03/09 02:11:28;;;;;;;;;;;;;;;7.61;66.19;94990.06;109023;1250;99680;-74
2023/03/09 02:13:56;;;;;;;;;;;;;;;7.58;66.21;94978.16;109018;1251;96872;-72
2023/03/09 02:16:24;;;;;;;;;;;;;;;7.55;66.20;94985.09;109030;1251;96931;-73
2023/03/09 02:18:52;;;;;;;;;;;;;;;7.56;66.27;94985.07;109084;1250;104547;-73
2023/03/09 02:21:23;;;;;;;;;;;;;;;7.58;66.38;94985.20;109099;1249;101445;-71
2023/03/09 02:23:51;;;;;;;;;;;;;;;7.61;66.20;94985.86;109027;1250;100158;-72
2023/03/09 02:26:31;;;;;;;;;;;;;;;7.65;66.32;94979.98;109001;1251;96841;-72
2023/03/09 02:28:59;;;;;;;;;;;;;;;7.67;66.44;94981.52;109037;1250;97097;-71
2023/03/09 02:31:27;;;;;;;;;;;;;;;7.69;66.35;94978.66;109013;1251;104924;-74
2023/03/09 02:33:55;;;;;;;;;;;;;;;7.71;66.28;94970.09;109049;1251;101335;-75
2023/03/09 02:36:23;;;;;;;;;;;;;;;7.73;66.28;94971.23;109051;1249;99962;-71
2023/03/09 02:38:51;;;;;;;;;;;;;;;7.74;66.23;94968.00;108994;1250;96986;-71
2023/03/09 02:41:20;;;;;;;;;;;;;;;7.75;66.37;94957.15;109016;1251;97028;-72
2023/03/09 02:43:53;;;;;;;;;;;;;;;7.75;66.25;94953.79;108842;1249;104001;-72
2023/03/09 02:46:21;;;;;;;;;;;;;;;7.75;66.25;94951.53;108659;1250;102318;-71
2023/03/09 02:48:49;;;;;;;;;;;;;;;7.75;66.24;94945.35;109017;1249;98693;-73
2023/03/09 02:51:17;;;;;;;;;;;;;;;7.74;66.32;94950.86;108643;1251;97013;-71
2023/03/09 02:53:45;;;;;;;;;;;;;;;7.74;66.44;94940.52;108971;1250;97015;-74
2023/03/09 02:56:13;;;;;;;;;;;;;;;7.74;66.39;94931.22;109078;1250;105055;-74
2023/03/09 02:58:41;;;;;;;;;;;;;;;7.72;66.39;94923.55;109037;1251;101319;-74
2023/03/09 03:01:09;;;;;;;;;;;;;;;7.73;66.40;94924.61;108706;1249;107175;-76
2023/03/09 03:03:37;;;;;;;;;;;;;;;7.73;66.41;94922.69;109008;1250;96835;-75
2023/03/09 03:06:05;;;;;;;;;;;;;;;7.71;66.42;94918.52;109012;1250;96912;-75
2023/03/09 03:08:35;;;;;;;;;;;;;;;7.70;66.49;94923.04;109060;1250;104886;-74
2023/03/09 03:11:03;;;;;;;;;;;;;;;7.70;66.45;94929.90;109052;1249;101356;-75
2023/03/09 03:13:31;;;;;;;;;;;;;;;7.70;66.43;94925.39;108961;1249;99575;-74
2023/03/09 03:16:02;;;;;;;;;;;;;;;7.71;66.45;94929.59;108717;1250;97029;-74
2023/03/09 03:18:31;;;;;;;;;;;;;;;7.71;66.48;94933.20;109008;1249;96847;-75
2023/03/09 03:20:59;;;;;;;;;;;;;;;7.72;66.55;94934.55;109097;1250;105082;-74
2023/03/09 03:23:27;;;;;;;;;;;;;;;7.73;66.59;94931.17;108683;1251;101209;-74
2023/03/09 03:25:55;;;;;;;;;;;;;;;7.73;66.61;94931.27;109017;1250;99051;-75
2023/03/09 03:28:23;;;;;;;;;;;;;;;7.74;66.46;94928.16;108952;1251;96950;-74
2023/03/09 03:30:51;;;;;;;;;;;;;;;7.74;66.44;94932.08;109086;1250;96983;-73
2023/03/09 03:33:19;;;;;;;;;;;;;;;7.73;66.48;94937.23;109030;1249;104619;-74
2023/03/09 03:35:47;;;;;;;;;;;;;;;7.73;66.46;94942.61;109055;1251;101322;-74
2023/03/09 03:38:15;;;;;;;;;;;;;;;7.73;66.62;94940.30;109022;1250;100122;-74
2023/03/09 03:40:43;;;;;;;;;;;;;;;7.73;66.76;94944.92;109016;1251;96929;-75
2023/03/09 03:43:11;;;;;;;;;;;;;;;7.73;66.93;94944.44;108949;1250;97101;-74
2023/03/09 03:45:39;;;;;;;;;;;;;;;7.72;66.84;94945.83;109000;1251;105237;-74
2023/03/09 03:48:07;;;;;;;;;;;;;;;7.71;67.19;94947.00;109005;1251;109959;-75
2023/03/09 03:50:35;;;;;;;;;;;;;;;7.71;67.22;94948.23;109006;1253;99432;-74
2023/03/09 03:53:03;;;;;;;;;;;;;;;7.72;67.28;94946.73;109037;1250;96975;-74
2023/03/09 03:55:31;;;;;;;;;;;;;;;7.71;67.24;94944.79;109037;1251;96948;-76
2023/03/09 03:57:59;;;;;;;;;;;;;;;7.71;67.30;94947.64;108998;1250;105089;-76
2023/03/09 04:00:27;;;;;;;;;;;;;;;7.71;67.33;94946.67;109016;1251;101296;-75
2023/03/09 04:02:56;;;;;;;;;;;;;;;7.70;67.41;94945.70;109002;1249;99863;-76
2023/03/09 04:05:24;;;;;;;;;;;;;;;7.68;67.49;94946.90;108992;1250;97310;-74
2023/03/09 04:07:52;;;;;;;;;;;;;;;7.67;67.58;94937.92;109093;1250;96928;-74
2023/03/09 04:10:23;;;;;;;;;;;;;;;7.66;67.75;94943.17;109017;1250;104929;-74
2023/03/09 04:12:51;;;;;;;;;;;;;;;7.67;67.72;94939.11;109086;1251;101445;-75
2023/03/09 04:15:19;;;;;;;;;;;;;;;7.67;67.85;94934.81;108997;1251;100020;-76
2023/03/09 04:17:48;;;;;;;;;;;;;;;7.67;67.68;94925.67;108991;1251;97028;-75
2023/03/09 04:20:16;;;;;;;;;;;;;;;7.68;67.70;94920.70;109070;1249;97130;-75
2023/03/09 04:22:44;;;;;;;;;;;;;;;7.67;67.76;94920.10;109066;1251;103495;-74
2023/03/09 04:25:12;;;;;;;;;;;;;;;7.67;67.64;94917.52;108996;1251;100496;-74
2023/03/09 04:27:40;;;;;;;;;;;;;;;7.67;67.77;94915.21;108952;1251;100067;-74
2023/03/09 04:30:08;;;;;;;;;;;;;;;7.67;67.93;94910.42;108745;1249;97016;-75
2023/03/09 04:32:37;;;;;;;;;;;;;;;7.67;67.89;94908.45;109022;1251;96920;-75
2023/03/09 04:35:06;;;;;;;;;;;;;;;7.67;67.97;94909.14;109049;1250;104984;-77
2023/03/09 04:37:34;;;;;;;;;;;;;;;7.64;67.93;94906.14;108670;1251;102598;-75
2023/03/09 04:40:02;;;;;;;;;;;;;;;7.61;68.20;94899.37;108982;1249;100113;-75
2023/03/09 04:42:31;;;;;;;;;;;;;;;7.59;68.18;94899.58;108945;1250;96867;-74
2023/03/09 04:44:59;;;;;;;;;;;;;;;7.58;68.16;94899.63;109069;1250;97019;-74
2023/03/09 04:47:26;;;;;;;;;;;;;;;7.58;68.08;94903.16;109042;1250;113050;-76
2023/03/09 04:49:54;;;;;;;;;;;;;;;7.57;68.36;94899.83;109059;1250;101299;-75
2023/03/09 04:52:22;;;;;;;;;;;;;;;7.54;68.35;94889.41;108992;1249;99049;-74
2023/03/09 04:54:50;;;;;;;;;;;;;;;7.50;68.41;94889.48;109023;1250;96842;-74
2023/03/09 04:57:18;;;;;;;;;;;;;;;7.48;68.41;94886.30;109051;1251;96953;-74
2023/03/09 04:59:46;;;;;;;;;;;;;;;7.50;68.55;94888.02;109022;1251;105051;-74
2023/03/09 05:02:14;;;;;;;;;;;;;;;7.48;68.59;94881.33;108732;1251;100328;-75
2023/03/09 05:04:42;;;;;;;;;;;;;;;7.46;68.77;94877.86;108972;1251;99441;-75
2023/03/09 05:07:10;;;;;;;;;;;;;;;7.46;68.50;94876.52;108933;1253;96903;-74
2023/03/09 05:09:38;;;;;;;;;;;;;;;7.48;68.44;94879.48;108987;1250;97247;-75
2023/03/09 05:12:06;;;;;;;;;;;;;;;7.53;68.41;94885.75;109008;1249;105013;-75
2023/03/09 05:14:34;;;;;;;;;;;;;;;7.58;68.36;94886.73;108996;1251;101635;-74
2023/03/09 05:17:02;;;;;;;;;;;;;;;7.62;68.28;94881.77;108730;1249;99283;-74
2023/03/09 05:19:30;;;;;;;;;;;;;;;7.66;68.27;94881.59;109020;1251;96902;-75
2023/03/09 05:21:58;;;;;;;;;;;;;;;7.70;68.00;94875.77;109029;1251;96993;-75
2023/03/09 05:24:26;;;;;;;;;;;;;;;7.75;68.24;94871.56;109019;1251;104567;-75
2023/03/09 05:26:54;;;;;;;;;;;;;;;7.82;68.11;94865.02;108998;1250;100477;-75
2023/03/09 05:29:22;;;;;;;;;;;;;;;7.87;68.00;94869.95;108978;1251;99957;-75
2023/03/09 05:31:50;;;;;;;;;;;;;;;7.92;67.83;94871.62;108966;1251;96962;-75
2023/03/09 05:34:18;;;;;;;;;;;;;;;7.97;67.78;94874.17;108727;1251;97472;-76
2023/03/09 05:36:46;;;;;;;;;;;;;;;8.03;67.94;94879.43;108971;1250;104395;-74
2023/03/09 05:39:14;;;;;;;;;;;;;;;8.06;67.89;94884.85;109036;1251;101121;-74
2023/03/09 05:41:42;;;;;;;;;;;;;;;8.08;67.55;94889.86;108684;1251;100071;-76
2023/03/09 05:44:10;;;;;;;;;;;;;;;8.10;67.38;94890.98;109016;1251;96834;-74
2023/03/09 05:46:38;;;;;;;;;;;;;;;8.12;67.43;94891.38;109077;1249;96918;-74
2023/03/09 05:49:06;;;;;;;;;;;;;;;8.13;67.34;94895.73;109058;1251;105254;-75
2023/03/09 05:51:34;;;;;;;;;;;;;;;8.13;67.19;94893.80;109026;1251;101415;-75
2023/03/09 05:54:02;;;;;;;;;;;;;;;8.13;67.20;94886.44;108959;1250;100127;-75
2023/03/09 05:56:30;;;;;;;;;;;;;;;8.14;67.17;94884.04;109017;1251;96891;-74
2023/03/09 05:58:58;;;;;;;;;;;;;;;8.16;67.18;94885.02;109092;1250;96921;-76
2023/03/09 06:01:28;;;;;;;;;;;;;;;8.17;67.13;94887.35;109043;1251;105026;-74
2023/03/09 06:03:56;;;;;;;;;;;;;;;8.18;66.93;94892.41;109058;1251;110503;-75
2023/03/09 06:06:24;;;;;;;;;;;;;;;8.19;67.20;94890.80;108713;1251;99975;-74
2023/03/09 06:08:52;;;;;;;;;;;;;;;8.20;67.17;94885.02;108987;1250;97171;-74
2023/03/09 06:11:20;;;;;;;;;;;;;;;8.21;67.03;94889.89;109002;1250;96899;-75
2023/03/09 06:13:48;;;;;;;;;;;;;;;8.22;67.04;94892.31;109000;1250;103449;-74
2023/03/09 06:16:17;;;;;;;;;;;;;;;8.24;66.80;94893.95;109003;1249;101241;-74
2023/03/09 06:18:45;;;;;;;;;;;;;;;8.26;66.98;94888.00;109017;1249;109672;-74
2023/03/09 06:21:13;;;;;;;;;;;;;;;8.27;66.98;94887.42;108976;1251;96871;-76
2023/03/09 06:23:41;;;;;;;;;;;;;;;8.29;66.90;94891.95;109022;1251;96958;-75
2023/03/09 06:26:11;;;;;;;;;;;;;;;8.30;67.09;94893.36;108728;1251;105056;-74
2023/03/09 06:28:39;;;;;;;;;;;;;;;8.33;67.04;94895.70;109055;1251;101847;-75
2023/03/09 06:31:11;;;;;;;;;;;;;;;8.35;66.94;94898.51;109005;1251;98915;-74
2023/03/09 06:33:40;;;;;;;;;;;;;;;8.37;67.00;94900.03;109011;1251;96913;-77
2023/03/09 06:36:12;;;;;;;;;;;;;;;8.40;67.17;94904.79;108756;1250;96972;-74
2023/03/09 06:38:40;;;;;;;;;;;;;;;8.44;67.04;94904.08;109043;1249;103791;-75
2023/03/09 06:41:08;;;;;;;;;;;;;;;8.45;67.06;94906.29;109034;1251;101181;-75
2023/03/09 06:43:36;;;;;;;;;;;;;;;8.46;67.13;94896.43;109005;1251;99982;-74
2023/03/09 06:46:04;;;;;;;;;;;;;;;8.47;67.23;94890.95;108978;1250;97105;-75
2023/03/09 06:48:32;;;;;;;;;;;;;;;8.49;67.12;94888.60;108725;1251;97071;-75
2023/03/09 06:51:00;;;;;;;;;;;;;;;8.52;67.14;94887.40;109036;1250;104834;-74
2023/03/09 06:53:28;;;;;;;;;;;;;;;8.55;67.32;94895.55;109028;1250;101335;-76
2023/03/09 06:55:59;;;;;;;;;;;;;;;8.58;67.13;94896.90;108710;1249;99852;-74
2023/03/09 06:58:27;;;;;;;;;;;;;;;8.60;67.11;94892.71;108996;1250;96885;-74
2023/03/09 07:00:55;;;;;;;;;;;;;;;8.64;67.13;94897.74;108646;1251;97159;-75
2023/03/09 07:03:23;;;;;;;;;;;;;;;8.67;67.08;94896.70;109009;1251;105122;-74
2023/03/09 07:05:51;;;;;;;;;;;;;;;8.70;67.19;94894.92;108646;1250;102451;-74
2023/03/09 07:08:19;;;;;;;;;;;;;;;8.73;67.29;94896.17;108981;1250;99789;-75
2023/03/09 07:10:47;;;;;;;;;;;;;;;8.77;67.25;94896.26;108941;1253;97148;-75
2023/03/09 07:13:15;;;;;;;;;;;;;;;8.79;67.20;94896.98;108939;1250;96915;-76
2023/03/09 07:15:43;;;;;;;;;;;;;;;8.80;67.22;94892.74;108955;1251;104919;-76
2023/03/09 07:18:12;;;;;;;;;;;;;;;8.83;67.19;94895.48;108920;1249;108031;-74
2023/03/09 07:20:40;;;;;;;;;;;;;;;8.85;67.07;94895.49;108926;1250;99915;-76
2023/03/09 07:23:09;;;;;;;;;;;;;;;8.87;67.10;94896.09;108943;1249;96933;-74
2023/03/09 07:25:38;;;;;;;;;;;;;;;8.88;67.07;94892.60;108967;1251;97038;-76
2023/03/09 07:28:08;;;;;;;;;;;;;;;8.90;67.13;94887.03;109030;1250;104922;-74
2023/03/09 07:30:37;;;;;;;;;;;;;;;8.92;67.09;94893.13;108956;1251;101451;-74
2023/03/09 07:33:05;;;;;;;;;;;;;;;8.95;67.12;94896.63;108910;1251;100111;-75
2023/03/09 07:35:34;;;;;;;;;;;;;;;8.98;67.02;94897.06;108924;1251;96853;-74
2023/03/09 07:38:02;;;;;;;;;;;;;;;9.01;67.17;94897.63;108970;1250;96924;-74
2023/03/09 07:40:30;;;;;;;;;;;;;;;9.06;67.12;94897.38;108878;1250;104802;-74
2023/03/09 07:42:58;;;;;;;;;;;;;;;9.13;67.07;94891.70;108910;1251;100404;-75
2023/03/09 07:45:26;;;;;;;;;;;;;;;9.20;66.91;94888.48;108945;1251;100154;-75
2023/03/09 07:47:54;;;;;;;;;;;;;;;9.25;66.93;94880.65;108579;1256;97087;-75
2023/03/09 07:50:23;;;;;;;;;;;;;;;9.26;66.95;94866.66;108924;1251;96924;-74
2023/03/09 07:52:51;;;;;;;;;;;;;;;9.23;67.25;94850.34;108952;1251;103946;-75
2023/03/09 07:55:22;;;;;;;;;;;;;;;9.22;67.54;94841.88;109027;1251;99170;-74
2023/03/09 07:57:50;;;;;;;;;;;;;;;9.21;67.51;94837.35;108562;1250;204979;-74
2023/03/09 08:00:22;;;;;;;;;;;;;;;9.20;67.84;94838.00;108971;1251;96919;-74
2023/03/09 08:02:51;;;;;;;;;;;;;;;9.24;68.17;94836.07;108989;1251;96982;-74
2023/03/09 08:05:19;;;;;;;;;;;;;;;9.30;68.15;94842.02;109023;1251;105796;-74
2023/03/09 08:07:47;;;;;;;;;;;;;;;9.33;68.26;94835.13;109039;1251;101724;-76
2023/03/09 08:10:16;;;;;;;;;;;;;;;9.39;68.43;94830.73;108964;1251;99885;-74
2023/03/09 08:12:48;;;;;;;;;;;;;;;9.46;68.45;94834.02;108987;1250;96840;-74
2023/03/09 08:15:18;;;;;;;;;;;;;;;9.50;68.53;94835.65;108963;1250;96997;-74
2023/03/09 08:17:47;;;;;;;;;;;;;;;9.52;68.42;94841.05;109058;1251;105015;-76
2023/03/09 08:20:15;;;;;;;;;;;;;;;9.50;68.06;94844.81;109004;1251;101444;-74
2023/03/09 08:22:44;;;;;;;;;;;;;;;9.46;67.92;94848.18;108976;1249;98425;-71
2023/03/09 08:25:12;;;;;;;;;;;;;;;9.44;67.88;94853.56;108983;1249;96853;-72
2023/03/09 08:27:45;;;;;;;;;;;;;;;9.42;67.77;94854.48;109003;1250;96945;-73
2023/03/09 08:30:14;;;;;;;;;;;;;;;9.34;68.01;94862.42;108993;1253;113419;-71
2023/03/09 08:32:42;;;;;;;;;;;;;;;9.30;68.30;94867.15;109001;1250;101334;-72
2023/03/09 08:35:10;;;;;;;;;;;;;;;9.27;68.27;94869.84;108744;1251;99824;-72
2023/03/09 08:37:38;;;;;;;;;;;;;;;9.23;68.38;94874.66;108998;1251;97229;-72
2023/03/09 08:40:06;;;;;;;;;;;;;;;9.21;68.46;94872.56;109018;1249;97039;-73
2023/03/09 08:42:35;;;;;;;;;;;;;;;9.21;68.83;94871.00;108632;1251;104795;-72
2023/03/09 08:45:03;;;;;;;;;;;;;;;9.23;69.08;94866.16;108949;1251;101328;-72
2023/03/09 08:47:32;;;;;;;;;;;;;;;9.26;69.20;94862.20;108990;1250;99903;-72
2023/03/09 08:50:00;;;;;;;;;;;;;;;9.30;69.32;94858.48;109023;1251;96906;-73
2023/03/09 08:52:28;;;;;;;;;;;;;;;9.33;69.26;94860.59;109045;1250;96910;-72
2023/03/09 08:54:56;;;;;;;;;;;;;;;9.34;69.02;94866.68;108886;1251;103460;-71
2023/03/09 08:57:27;;;;;;;;;;;;;;;9.35;68.96;94864.05;109035;1251;101269;-73
2023/03/09 08:59:55;;;;;;;;;;;;;;;9.37;69.12;94863.58;108804;1251;100050;-71
2023/03/09 09:02:23;;;;;;;;;;;;;;;9.37;68.72;94861.04;109089;1250;96910;-73
2023/03/09 09:04:51;;;;;;;;;;;;;;;9.37;68.71;94859.91;108996;1249;96897;-72
2023/03/09 09:07:20;;;;;;;;;;;;;;;9.38;68.84;94862.07;109074;1250;104582;-71
2023/03/09 09:09:48;;;;;;;;;;;;;;;9.43;69.27;94863.05;108802;1251;102798;-73
2023/03/09 09:12:16;;;;;;;;;;;;;;;9.46;68.85;94859.92;108881;1249;100017;-73
2023/03/09 09:14:44;;;;;;;;;;;;;;;9.49;68.64;94862.09;108881;1251;96865;-71
2023/03/09 09:17:13;;;;;;;;;;;;;;;9.49;68.38;94863.00;108953;1251;97115;-71
2023/03/09 09:19:41;;;;;;;;;;;;;;;9.47;68.41;94859.23;108957;1251;105065;-72
2023/03/09 09:22:10;;;;;;;;;;;;;;;9.48;68.38;94857.35;108984;1250;101306;-73
2023/03/09 09:24:38;;;;;;;;;;;;;;;9.50;68.38;94860.11;108997;1251;98754;-72
2023/03/09 09:27:07;;;;;;;;;;;;;;;9.52;68.36;94859.30;108955;1253;97179;-72
2023/03/09 09:29:36;;;;;;;;;;;;;;;9.52;68.08;94866.25;108703;1259;97016;-74
2023/03/09 09:32:05;;;;;;;;;;;;;;;9.49;68.02;94871.24;109042;1251;104867;-71
2023/03/09 09:34:34;;;;;;;;;;;;;;;9.48;68.07;94875.02;109012;1251;99734;-72
2023/03/09 09:37:02;;;;;;;;;;;;;;;9.48;67.95;94874.15;108987;1249;99596;-72
2023/03/09 09:39:31;;;;;;;;;;;;;;;9.51;68.00;94875.89;108942;1249;96852;-72
2023/03/09 09:42:02;;;;;;;;;;;;;;;9.53;67.91;94875.29;109033;1250;96938;-71
2023/03/09 09:44:38;;;;;;;;;;;;;;;9.55;67.93;94874.36;109002;1251;104728;-73
2023/03/09 09:47:08;;;;;;;;;;;;;;;9.60;68.12;94877.41;109000;1250;101189;-72
2023/03/09 09:49:45;;;;;;;;;;;;;;;9.67;68.09;94874.52;108956;1249;100180;-72
2023/03/09 09:52:13;;;;;;;;;;;;;;;9.72;67.96;94875.05;108964;1249;97150;-72
2023/03/09 09:54:48;;;;;;;;;;;;;;;9.75;67.89;94875.19;109031;1249;96981;-72
2023/03/09 09:57:20;;;;;;;;;;;;;;;9.82;67.70;94868.02;109027;1250;104944;-73
2023/03/09 09:59:51;;;;;;;;;;;;;;;9.90;67.81;94862.69;108958;1251;99993;-71
2023/03/09 10:02:40;;;;;;;;;;;;;;;9.99;67.81;94863.02;108928;1250;99793;-72
2023/03/09 10:05:27;;;;;;;;;;;;;;;10.12;67.58;94871.58;108934;1251;96939;-71
2023/03/09 10:07:56;;;;;;;;;;;;;;;10.20;67.21;94868.48;108949;1249;97109;-72
2023/03/09 10:10:28;;;;;;;;;;;;;;;10.21;67.03;94868.12;108633;1250;104994;-72
2023/03/09 10:12:57;;;;;;;;;;;;;;;10.23;67.03;94868.88;108903;1251;101452;-72
2023/03/09 10:15:30;;;;;;;;;;;;;;;10.26;66.92;94870.23;108914;1251;100017;-71
2023/03/09 10:18:05;;;;;;;;;;;;;;;10.27;66.80;94867.45;108933;1251;96948;-72
2023/03/09 10:20:35;;;;;;;;;;;;;;;10.29;66.71;94878.45;108633;1251;97979;-72
2023/03/09 10:23:12;;;;;;;;;;;;;;;10.31;66.63;94878.30;108932;1250;104699;-72
2023/03/09 10:25:43;;;;;;;;;;;;;;;10.35;66.63;94879.65;108933;1251;101319;-71
2023/03/09 10:28:15;;;;;;;;;;;;;;;10.43;66.75;94874.35;108865;1251;99581;-73
2023/03/09 10:30:46;;;;;;;;;;;;;;;10.52;66.66;94873.69;108922;1250;96899;-72
2023/03/09 10:33:26;;;;;;;;;;;;;;;10.56;66.42;94875.20;108999;1250;97788;-71
2023/03/09 10:36:15;;;;;;;;;;;;;;;10.59;66.22;94877.03;108932;1250;104031;-72
2023/03/09 10:38:43;;;;;;;;;;;;;;;10.61;65.97;94875.73;108760;1251;100472;-72
2023/03/09 10:41:18;;;;;;;;;;;;;;;10.65;66.05;94874.15;108909;1251;99963;-72
2023/03/09 10:43:46;;;;;;;;;;;;;;;10.71;65.93;94875.23;108868;1250;96837;-73
2023/03/09 10:46:19;;;;;;;;;;;;;;;10.77;65.99;94882.06;108948;1250;96961;-73
2023/03/09 10:48:49;;;;;;;;;;;;;;;10.84;65.85;94881.98;108825;1251;104601;-72
2023/03/09 10:51:20;;;;;;;;;;;;;;;10.89;65.70;94887.20;109016;1250;101288;-73
2023/03/09 10:53:48;;;;;;;;;;;;;;;10.89;65.79;94891.47;108988;1249;100010;-73
2023/03/09 10:56:26;;;;;;;;;;;;;;;10.84;65.75;94899.21;108992;1249;96918;-72
2023/03/09 10:59:07;;;;;;;;;;;;;;;10.81;65.93;94900.95;108996;1249;97827;-71
2023/03/09 11:01:36;;;;;;;;;;;;;;;10.82;66.13;94907.47;109088;1250;104900;-72
2023/03/09 11:04:22;;;;;;;;;;;;;;;10.85;66.12;94912.98;108664;1250;101289;-73
2023/03/09 11:07:00;;;;;;;;;;;;;;;10.88;66.32;94921.70;108907;1250;100260;-72
2023/03/09 11:09:31;;;;;;;;;;;;;;;10.89;66.40;94925.42;109025;1249;97269;-71
2023/03/09 11:12:19;;;;;;;;;;;;;;;10.88;66.19;94933.73;108891;1251;98532;-73
2023/03/09 11:15:01;;;;;;;;;;;;;;;10.81;65.99;94936.88;108097;1260;104589;-72
2023/03/09 11:17:34;;;;;;;;;;;;;;;10.75;65.91;94951.14;108288;1259;101274;-72
2023/03/09 11:20:20;;;;;;;;;;;;;;;10.63;65.99;94954.34;108208;1260;99000;-73
2023/03/09 11:22:51;;;;;;;;;;;;;;;10.51;66.26;94961.46;108010;1260;97388;-72
2023/03/09 11:25:37;;;;;;;;;;;;;;;10.36;66.33;94965.61;108229;1260;97065;-72
2023/03/09 11:28:12;;;;;;;;;;;;;;;10.20;66.68;94979.66;108241;1260;104884;-74
2023/03/09 11:30:40;;;;;;;;;;;;;;;10.07;67.10;94987.97;108268;1259;101066;-72
2023/03/09 11:33:13;;;;;;;;;;;;;;;10.00;67.45;94986.40;108221;1259;100111;-72
2023/03/09 11:35:42;;;;;;;;;;;;;;;9.93;67.50;94992.63;108057;1260;96957;-72
2023/03/09 11:38:13;;;;;;;;;;;;;;;9.88;67.88;94995.53;108234;1259;97906;-72
2023/03/09 11:40:42;;;;;;;;;;;;;;;9.84;68.25;94994.92;108082;1259;105361;-73
2023/03/09 11:43:15;;;;;;;;;;;;;;;9.82;68.40;94998.25;108234;1259;101365;-71
2023/03/09 11:45:45;;;;;;;;;;;;;;;9.82;68.80;95006.76;108174;1259;99165;-72
2023/03/09 11:48:27;;;;;;;;;;;;;;;9.79;68.74;95010.69;108215;1260;97106;-72
2023/03/09 11:50:58;;;;;;;;;;;;;;;9.72;68.75;95016.48;108158;1259;97162;-70
2023/03/09 11:53:36;;;;;;;;;;;;;;;9.66;69.09;95022.45;108920;1251;105091;-72
2023/03/09 11:56:07;;;;;;;;;;;;;;;9.61;69.40;95028.63;109028;1250;101592;-71
2023/03/09 11:58:37;;;;;;;;;;;;;;;9.60;69.77;95038.58;108548;1251;100255;-71
2023/03/09 12:01:09;;;;;;;;;;;;;;;9.60;70.01;95046.23;108921;1250;96899;-72
2023/03/09 12:03:43;;;;;;;;;;;;;;;9.56;69.65;95052.34;108995;1250;97032;-71
2023/03/09 12:06:37;;;;;;;;;;;;;;;9.48;69.74;95062.70;109051;1250;103907;-72
2023/03/09 12:09:08;;;;;;;;;;;;;;;9.44;70.01;95073.23;108308;1259;101039;-71
2023/03/09 12:11:42;;;;;;;;;;;;;;;9.36;69.71;95081.00;108296;1257;99617;-71
2023/03/09 12:14:29;;;;;;;;;;;;;;;9.30;69.95;95085.20;108312;1257;96942;-72
2023/03/09 12:17:00;;;;;;;;;;;;;;;9.26;70.29;95095.36;108342;1257;97338;-71
2023/03/09 12:19:29;;;;;;;;;;;;;;;9.26;70.53;95106.23;108275;1257;105165;-72
2023/03/09 12:22:08;;;;;;;;;;;;;;;9.26;70.66;95115.77;108274;1259;101091;-71
2023/03/09 12:24:36;;;;;;;;;;;;;;;9.25;70.58;95127.94;108312;1256;100223;-72
2023/03/09 12:27:13;;;;;;;;;;;;;;;9.20;70.50;95134.73;108228;1258;97337;-72
2023/03/09 12:29:52;;;;;;;;;;;;;;;9.12;70.65;95143.66;108242;1259;97309;-73
2023/03/09 12:32:20;;;;;;;;;;;;;;;9.04;70.71;95151.29;108188;1259;103722;-71
2023/03/09 12:34:49;;;;;;;;;;;;;;;8.95;70.52;95160.20;108263;1259;100453;-72
2023/03/09 12:37:29;;;;;;;;;;;;;;;8.84;70.75;95173.01;108319;1257;99906;-71
2023/03/09 12:40:00;;;;;;;;;;;;;;;8.77;70.76;95173.80;108303;1258;97010;-72
2023/03/09 12:42:39;;;;;;;;;;;;;;;8.70;70.68;95189.70;108371;1256;97055;-71
2023/03/09 12:45:13;;;;;;;;;;;;;;;8.62;70.54;95193.86;108382;1257;104993;-72
2023/03/09 12:47:46;;;;;;;;;;;;;;;8.53;70.64;95191.29;108944;1249;101216;-71
2023/03/09 12:50:25;;;;;;;;;;;;;;;8.52;70.88;95189.83;108917;1250;98525;-71
2023/03/09 12:53:16;;;;;;;;;;;;;;;8.53;71.10;95196.73;108897;1251;96876;-72
2023/03/09 12:55:50;;;;;;;;;;;;;;;8.55;71.18;95197.55;108902;1251;96958;-74